Impacts TAF Board
For situational awareness. Not to be used for flight planning purposes.
IDs:

KTOI - Troy Muni, AL, US

Issued at 1025 UTC 17 Feb 2019
Updated at 1036 UTC 17 Feb 2019
Potential Impact None Slight Moderate High
Time<<17/23Z 18/00Z 18/01Z 18/02Z 18/03Z 18/04Z 18/05Z 18/06Z 18/07Z 18/08Z 18/09Z 18/10Z 18/11Z>>
Type PRVL PRVL PRVL PRVL PRVL PRVL PRVL
VIS >6 >6 >6 >6 >6 >6 >6
CIG 15 15 15 15 15 15 15
Cover OVC OVC OVC OVC OVC OVC OVC
FltCat MVFR MVFR MVFR MVFR MVFR MVFR MVFR
WX VCSH VCSH VCSH VCSH VCSH VCSH VCSH
WDir 180 180 180 180 180 180 180
WSpd 9 9 9 9 9 9 9
WGst -- -- -- -- -- -- --
Raw TAF
KTOI 171025Z 1710/1806 09003KT P6SM OVC009
  TEMPO 1710/1714 OVC006
  FM171500 12005KT P6SM OVC012
  FM171900 18009KT P6SM VCSH OVC015


METAR Board
Radar Display
Forecast Discussion
For situational awareness. Not to be used for flight planning purposes.